Latest Weather Observations for Davis*

IDT60801

Issued at 7:11 pm EDT Wednesday 25 November 2020 (issued every 10 minutes, with the page automatically refreshed every 10 minutes)

About weather observations | Map of weather stations | Latest weather observations for ANT | Other Formats
Station Details ID: 300000 Name: DAVIS Lat: -68.57 Lon: 77.97 Height: 18.0 m
Data from the previous 72 hours. | See also: Recent months at Davis*
Date/Time
EDT
Temp
°C
App
Temp
°C
Dew
Point
°C
Rel
Hum
%
Delta-T
°C
Wind Press
QNH
hPa
Press
MSL
hPa
Rain since
9am
mm
Dir  Spd
km/h
Gust
km/h
Spd
kts
Gust
kts
25/07:00pm -3.9 -8.7 -10.9 58 - WSW 9 11 5 6 994.5 994.7 -
25/06:30pm -3.4 -8.1 -9.0 65 - W 9 13 5 7 994.7 - -
25/06:00pm -3.9 -8.1 -9.9 63 - WNW 6 9 3 5 994.7 - -
25/05:30pm -4.0 -8.3 -9.4 66 - NW 7 11 4 6 994.7 - -
25/05:00pm -4.4 -9.6 -10.8 61 - NNW 11 15 6 8 995.1 995.4 -
25/04:30pm -4.2 -9.6 -8.8 70 - NNW 13 17 7 9 995.4 - -
25/04:00pm -4.6 -9.8 -10.5 63 - NNW 11 13 6 7 995.7 - -
25/03:30pm -4.4 -10.7 -9.8 66 - NNW 17 20 9 11 996.0 - -
25/03:00pm -4.7 -9.8 -9.3 70 - NNW 11 13 6 7 996.3 - -
25/02:30pm -5.1 -9.9 -9.9 69 - NNW 9 13 5 7 996.2 - -
25/02:00pm -5.2 -9.9 -9.8 70 - N 9 13 5 7 996.4 996.7 -
25/01:30pm -5.3 -9.7 -10.6 66 - N 7 11 4 6 996.5 - -
25/01:00pm -5.2 -9.6 -10.5 66 - N 7 9 4 5 997.1 - -
25/12:30pm -5.6 -10.5 -12.1 60 - N 9 13 5 7 997.5 - -
25/12:00pm -5.7 -10.1 -10.8 67 - N 7 9 4 5 997.5 - -
25/11:30am -6.0 -10.5 -12.1 62 - NNW 7 7 4 4 997.6 - -
25/11:00am -6.0 -10.5 -11.3 66 - NNW 7 9 4 5 998.2 998.4 -
25/10:30am -5.8 -9.7 -11.7 63 - N 4 9 2 5 998.3 - -
25/10:00am -6.9 -11.2 -11.6 69 - W 6 7 3 4 998.5 - -
25/09:30am -7.1 -10.7 -12.5 65 - W 2 6 1 3 998.5 - -
25/09:00am -7.3 -12.2 -11.8 70 - WNW 9 11 5 6 999.2 - -
25/08:30am -6.6 -11.0 -13.7 57 - ESE 6 9 3 5 999.1 - -
25/08:00am -6.9 -12.7 -13.5 59 - SE 13 15 7 8 999.0 999.2 -
25/07:30am -6.6 -12.0 -13.7 57 - SE 11 15 6 8 999.1 - -
25/07:00am -6.6 -11.9 -12.4 63 - S 11 15 6 8 999.3 - -
25/06:30am -7.1 -12.3 -10.9 74 - SSW 11 13 6 7 999.6 - -
25/06:00am -6.9 -13.0 -12.5 64 - S 15 20 8 11 999.5 - -
25/05:30am -6.6 -13.0 -11.1 70 - SW 17 22 9 12 999.9 - -
25/05:00am -6.2 -12.9 -8.1 86 - WSW 20 28 11 15 999.9 1000.1 -
25/04:30am -5.5 -10.9 -8.2 81 - SW 13 19 7 10 999.6 - -
25/04:00am -6.0 -11.0 -8.0 86 - SW 11 17 6 9 999.3 - -
25/03:30am -5.5 -11.2 -7.3 87 - SW 15 19 8 10 999.1 - -
25/03:00am -5.3 -11.4 -7.7 83 - WSW 17 22 9 12 999.3 - -
25/02:30am -4.7 -11.5 -9.3 70 - WSW 20 26 11 14 999.3 - -
25/02:00am -3.8 -9.6 -9.0 67 - SW 15 20 8 11 999.4 999.6 -
25/01:30am -3.6 -10.5 -11.1 56 - SW 20 24 11 13 999.4 - -
25/01:00am -3.4 -10.2 -9.6 62 - SW 20 24 11 13 999.5 - -
25/12:30am -3.2 -10.5 -11.4 53 - SSW 22 28 12 15 999.5 - -
25/12:00am -2.9 -9.6 -8.3 66 - SW 20 26 11 14 999.8 - -
 
Date/Time
EDT
Temp
°C
App
Temp
°C
Dew
Point
°C
Rel
Hum
%
Delta-T
°C
Wind Press
QNH
hPa
Press
MSL
hPa
Rain since
9am
mm
Dir  Spd
km/h
Gust
km/h
Spd
kts
Gust
kts
24/11:30pm -3.2 -9.5 -9.6 61 - SW 17 22 9 12 999.9 - -
24/11:00pm -2.4 -9.1 -10.0 56 - WSW 19 24 10 13 1000.0 1000.2 -
24/10:30pm -2.3 -8.9 -9.0 60 - SW 19 24 10 13 999.7 - -
24/10:00pm -2.7 -9.4 -10.5 55 - WSW 19 24 10 13 999.6 - -
24/09:30pm -2.5 -9.2 -10.7 53 - WSW 19 24 10 13 999.6 - -
24/09:00pm -2.0 -9.0 -12.0 46 - WSW 20 24 11 13 999.5 - -
24/08:30pm -1.9 -8.3 -12.0 46 - WSW 17 20 9 11 999.4 - -
24/08:00pm -2.0 -8.0 -11.8 47 - WSW 15 17 8 9 999.5 999.7 -
24/07:30pm -1.9 -8.4 -13.1 42 - WSW 17 19 9 10 999.5 - -
24/07:00pm -1.3 -7.0 -12.8 41 - WSW 13 17 7 9 999.6 - -
24/06:30pm -1.6 -7.6 -18.1 27 - W 13 15 7 8 999.6 - -
24/06:00pm -1.6 -7.3 -20.0 23 - W 11 13 6 7 999.6 - -
24/05:30pm -2.0 -7.4 -21.9 20 - W 9 11 5 6 999.7 - -
24/05:00pm -2.7 -8.0 -19.5 26 - WSW 9 11 5 6 999.8 1000.0 -
24/04:30pm -2.7 -7.9 -18.6 28 - WSW 9 11 5 6 999.8 - -
24/04:00pm -2.9 -8.5 -18.8 28 - W 11 13 6 7 999.8 - -
24/03:30pm -3.1 -8.7 -18.6 29 - NNW 11 15 6 8 999.8 - -
24/03:00pm -3.5 -9.5 -17.4 33 - NNW 13 15 7 8 999.6 - -
24/02:30pm -3.8 -9.8 -18.0 32 - NNW 13 15 7 8 999.6 - -
24/02:00pm -3.9 -8.7 -16.7 36 - NNW 7 9 4 5 999.7 999.9 -
24/01:30pm -4.3 -9.1 -16.1 39 - NNW 7 9 4 5 999.7 - -
24/01:00pm -4.4 -9.5 -14.5 45 - NW 9 11 5 6 999.9 - -
24/12:30pm -4.6 -9.2 -13.4 50 - NW 7 9 4 5 999.6 - -
24/12:00pm -3.7 -8.9 -17.9 32 - E 9 17 5 9 999.5 - -
24/11:30am -3.7 -10.5 -19.1 29 - NE 17 22 9 12 999.4 - -
24/11:00am -4.1 -10.9 -19.9 28 - NE 17 22 9 12 999.5 999.7 -
24/10:30am -4.5 -11.7 -20.2 28 - ENE 19 22 10 12 999.5 - -
24/10:00am -4.7 -11.5 -19.6 30 - ENE 17 20 9 11 999.6 - -
24/09:30am -4.8 -12.0 -18.9 32 - ENE 19 22 10 12 999.5 - -
24/09:00am -5.0 -11.0 -18.7 33 - E 13 17 7 9 999.5 - -
24/08:30am -5.1 -11.8 -17.8 36 - E 17 20 9 11 999.2 - -
24/08:00am -5.3 -12.4 -18.0 36 - E 19 22 10 12 998.8 999.0 -
24/07:30am -5.0 -12.3 -17.1 38 - ENE 20 24 11 13 998.6 - -
24/07:00am -4.9 -12.1 -16.1 41 - E 20 24 11 13 998.5 - -
24/06:30am -4.4 -11.4 -15.6 41 - ENE 19 24 10 13 998.4 - -
24/06:00am -4.2 -10.8 -15.2 42 - E 17 20 9 11 998.1 - -
24/05:30am -3.8 -11.0 -15.4 40 - E 20 24 11 13 997.7 - -
24/05:00am -3.4 -9.9 -13.1 47 - ENE 17 20 9 11 997.5 997.8 -
24/04:30am -3.2 -11.5 -14.5 41 - ENE 26 30 14 16 997.1 - -
24/04:00am -2.3 -10.6 -14.3 39 - E 26 32 14 17 996.8 - -
24/03:30am -2.8 -9.0 -8.6 64 - SE 17 20 9 11 996.8 - -
24/03:00am -2.9 -9.4 -7.6 70 - S 19 24 10 13 996.7 - -
24/02:30am -2.5 -9.0 -8.4 64 - S 19 24 10 13 996.7 - -
24/02:00am -2.1 -9.2 -7.8 65 - S 22 30 12 16 996.6 996.9 -
24/01:30am -2.1 -8.3 -8.6 61 - S 17 26 9 14 996.7 - -
24/01:00am -1.8 -8.5 -8.5 60 - S 20 30 11 16 996.8 - -
24/12:30am -1.8 -8.9 -8.7 59 - S 22 30 12 16 996.9 - -
24/12:00am -1.8 -9.0 -9.2 57 - S 22 32 12 17 997.0 - -
 
Date/Time
EDT
Temp
°C
App
Temp
°C
Dew
Point
°C
Rel
Hum
%
Delta-T
°C
Wind Press
QNH
hPa
Press
MSL
hPa
Rain since
9am
mm
Dir  Spd
km/h
Gust
km/h
Spd
kts
Gust
kts
23/11:30pm -1.9 -9.1 -9.9 54 - S 22 30 12 16 996.9 - -
23/11:00pm -1.8 -9.8 -10.1 53 - SSW 26 33 14 18 996.9 997.2 -
23/10:30pm -1.6 -9.2 -9.2 56 - SSW 24 32 13 17 996.8 - -
23/10:00pm -1.6 -8.8 -9.7 54 - S 22 28 12 15 996.9 - -
23/09:30pm -2.5 -9.3 -9.8 57 - SW 20 26 11 14 997.1 - -
23/09:00pm -2.2 -9.0 -9.5 57 - SSW 20 26 11 14 997.1 - -
23/08:30pm -1.7 -7.3 -11.0 49 - WSW 13 17 7 9 997.1 - -
23/08:00pm -1.8 -7.1 -12.4 44 - W 11 15 6 8 997.2 997.5 -
23/07:30pm -1.8 -7.1 -12.7 43 - W 11 15 6 8 997.3 - -
23/07:00pm -1.7 -7.0 -12.6 43 - W 11 13 6 7 997.3 - -
23/06:30pm -1.9 -8.0 -12.5 44 - NW 15 19 8 10 997.3 - -
23/06:00pm -1.6 -7.2 -11.1 48 - NNW 13 17 7 9 997.2 - -
23/05:30pm -2.4 -8.9 -12.7 45 - N 17 20 9 11 997.2 - -
23/05:00pm -2.9 -10.0 -12.9 46 - N 20 24 11 13 997.2 997.5 -
23/04:30pm -2.7 -11.3 -12.7 46 - N 28 33 15 18 996.9 - -
23/04:00pm -2.8 -11.3 -11.3 52 - N 28 35 15 19 997.3 - -
23/03:30pm -3.0 -11.4 -10.7 55 - N 28 33 15 18 997.3 - -
23/03:00pm -3.0 -11.2 -12.7 47 - N 26 32 14 17 997.5 - -
23/02:30pm -3.3 -10.7 -12.7 48 - N 22 28 12 15 997.6 - -
23/02:00pm -4.1 -11.9 -13.2 49 - N 24 28 13 15 997.7 998.0 -
23/01:30pm -3.3 -10.4 -14.3 42 - N 20 28 11 15 997.8 - -
23/01:00pm -3.8 -11.0 -15.7 39 - NNE 20 30 11 16 997.8 - -
23/12:30pm -3.1 -9.7 -16.0 36 - NNE 17 24 9 13 998.1 - -
23/12:00pm -4.2 -9.2 -14.1 46 - SW 9 13 5 7 997.9 - -
23/11:30am -4.6 -9.6 -14.2 47 - SSW 9 13 5 7 997.9 - -
23/11:00am -4.5 -8.7 -15.7 41 - S 4 7 2 4 998.3 998.5 -
23/10:30am -3.9 -10.2 -17.4 34 - NE 15 20 8 11 998.1 - -
23/10:00am -4.9 -10.0 -15.5 43 - NNE 9 15 5 8 998.1 - -
23/09:30am -4.3 -10.2 -15.8 40 - E 13 19 7 10 997.8 - -
23/09:00am -5.8 -11.2 -13.1 56 - NNE 11 17 6 9 997.7 - -
23/08:30am -4.9 -10.7 -15.0 45 - ENE 13 17 7 9 997.5 - -
23/08:00am -4.8 -10.6 -14.9 45 - ENE 13 17 7 9 997.4 997.7 -
23/07:30am -4.4 -10.6 -14.8 44 - E 15 17 8 9 997.2 - -
23/07:00am -4.4 -9.0 -12.5 53 - NNE 7 11 4 6 997.1 - -
23/06:30am -3.9 -8.9 -13.0 49 - NE 9 13 5 7 997.0 - -
23/06:00am -3.4 -9.5 -12.8 48 - NE 15 17 8 9 996.8 - -
23/05:30am -3.6 -10.4 -12.5 50 - NE 19 24 10 13 996.6 - -
23/05:00am -2.6 -10.1 -13.4 43 - NE 22 26 12 14 996.4 996.7 -
23/04:30am -2.1 -8.6 -12.7 44 - NE 17 22 9 12 996.1 - -
23/04:00am -1.7 -7.7 -11.0 49 - NNE 15 20 8 11 995.9 - -
23/03:30am -1.2 -7.9 -10.8 48 - E 19 22 10 12 995.5 - -
23/03:00am -1.9 -7.2 -7.0 68 - S 13 20 7 11 995.7 - -
23/02:30am -1.3 -6.9 -6.4 68 - S 15 20 8 11 995.7 - -
23/02:00am -1.1 -7.5 -6.4 67 - SSW 19 22 10 12 995.5 995.8 -
23/01:30am -0.8 -6.8 -6.5 65 - S 17 20 9 11 995.5 - -
23/01:00am -0.5 -5.8 -6.9 62 - S 13 19 7 10 995.5 - -
23/12:30am -0.9 -7.3 -6.8 64 - SSW 19 22 10 12 995.6 - -
23/12:00am -1.0 -7.4 -7.1 63 - SW 19 22 10 12 995.7 - -
 
Date/Time
EDT
Temp
°C
App
Temp
°C
Dew
Point
°C
Rel
Hum
%
Delta-T
°C
Wind Press
QNH
hPa
Press
MSL
hPa
Rain since
9am
mm
Dir  Spd
km/h
Gust
km/h
Spd
kts
Gust
kts
22/11:30pm -0.5 -6.1 -5.9 67 - SW 15 19 8 10 995.8 - -

Other formats

Comma delimited format used in spreadsheet applications
http://www.bom.gov.au/fwo/IDT60803/IDT60803.89571.axf

JavaScript Object Notation format (JSON) in row-major order
http://www.bom.gov.au/fwo/IDT60803/IDT60803.89571.json

Data quality

Most of these data are generated automatically and are frequently updated. Quality checks on data are not normally performed. It is possible for incorrect values to appear. Refer to information at About Latest Weather Observations and please check the disclaimer before using these data.